N13PY MDJB-MDJB
Flight info
| Callsign | N13PY |
|---|---|
| Flight time | 1h 10m |
| Altitude | 4000 |
| Route | VFR |
| Aircraft | SR22/L-SDGRY/S |
Departure
| Time | 2026-04-12 03:26 |
|---|---|
| Airport | La Isabela International Airport (MDJB) |
Arrival
| Time | 2026-04-12 04:36 |
|---|---|
| Airport | La Isabela International Airport (MDJB) |
| Time | Latitude | Longitude | Altitude | Speed | Heading |
|---|---|---|---|---|---|
| 2026-04-12 03:10 | 18.57802 | -69.98001 | 83 ft | 0 kts | 6° |
| 2026-04-12 03:15 | 18.57802 | -69.98000 | 83 ft | 0 kts | 6° |
| 2026-04-12 03:16 | 18.57803 | -69.98000 | 83 ft | 0 kts | 6° |
| 2026-04-12 03:17 | 18.57817 | -69.97992 | 83 ft | 3 kts | 7° |
| 2026-04-12 03:18 | 18.57817 | -69.98014 | 83 ft | 6 kts | 183° |
| 2026-04-12 03:18 | 18.57751 | -69.98027 | 83 ft | 8 kts | 247° |
| 2026-04-12 03:18 | 18.57759 | -69.98116 | 83 ft | 16 kts | 276° |
| 2026-04-12 03:18 | 18.57769 | -69.98200 | 83 ft | 10 kts | 274° |
| 2026-04-12 03:19 | 18.57770 | -69.98222 | 83 ft | 8 kts | 271° |
| 2026-04-12 03:19 | 18.57754 | -69.98237 | 83 ft | 5 kts | 188° |
| 2026-04-12 03:19 | 18.57680 | -69.98250 | 83 ft | 7 kts | 217° |
| 2026-04-12 03:20 | 18.57671 | -69.98297 | 83 ft | 5 kts | 209° |
| 2026-04-12 03:20 | 18.57624 | -69.98304 | 83 ft | 10 kts | 187° |
| 2026-04-12 03:20 | 18.57546 | -69.98315 | 83 ft | 11 kts | 188° |
| 2026-04-12 03:20 | 18.57488 | -69.98352 | 83 ft | 11 kts | 230° |
| 2026-04-12 03:21 | 18.57426 | -69.98406 | 83 ft | 13 kts | 216° |
| 2026-04-12 03:21 | 18.57360 | -69.98458 | 83 ft | 6 kts | 217° |
| 2026-04-12 03:21 | 18.57345 | -69.98470 | 83 ft | 0 kts | 218° |
| 2026-04-12 03:22 | 18.57337 | -69.98477 | 83 ft | 1 kts | 218° |
| 2026-04-12 03:22 | 18.57336 | -69.98477 | 83 ft | 0 kts | 218° |
| 2026-04-12 03:22 | 18.57336 | -69.98478 | 83 ft | 0 kts | 218° |
| 2026-04-12 03:23 | 18.57335 | -69.98478 | 83 ft | 1 kts | 218° |
| 2026-04-12 03:23 | 18.57312 | -69.98501 | 83 ft | 14 kts | 226° |
| 2026-04-12 03:24 | 18.57164 | -69.98572 | 83 ft | 33 kts | 187° |
| 2026-04-12 03:24 | 18.56901 | -69.98603 | 83 ft | 42 kts | 186° |
| 2026-04-12 03:24 | 18.56563 | -69.98640 | 83 ft | 16 kts | 168° |
| 2026-04-12 03:24 | 18.56496 | -69.98615 | 83 ft | 6 kts | 202° |
| 2026-04-12 03:25 | 18.56489 | -69.98652 | 83 ft | 4 kts | 331° |
| 2026-04-12 03:25 | 18.56498 | -69.98653 | 83 ft | 0 kts | 6° |
| 2026-04-12 03:25 | 18.56671 | -69.98632 | 83 ft | 53 kts | 6° |
| 2026-04-12 03:25 | 18.57200 | -69.98566 | 87 ft | 96 kts | 6° |
| 2026-04-12 03:26 | 18.57866 | -69.98432 | 366 ft | 95 kts | 25° |
| 2026-04-12 03:26 | 18.58364 | -69.97883 | 497 ft | 111 kts | 65° |
| 2026-04-12 03:26 | 18.58236 | -69.97139 | 755 ft | 108 kts | 138° |
| 2026-04-12 03:26 | 18.57480 | -69.96893 | 892 ft | 120 kts | 169° |
| 2026-04-12 03:27 | 18.56644 | -69.96742 | 1100 ft | 124 kts | 170° |
| 2026-04-12 03:27 | 18.55785 | -69.96613 | 1322 ft | 126 kts | 171° |
| 2026-04-12 03:27 | 18.54911 | -69.96499 | 1546 ft | 127 kts | 172° |
| 2026-04-12 03:27 | 18.54021 | -69.96393 | 1741 ft | 131 kts | 172° |
| 2026-04-12 03:28 | 18.53107 | -69.96273 | 1915 ft | 136 kts | 171° |
| 2026-04-12 03:28 | 18.52160 | -69.96149 | 2011 ft | 144 kts | 171° |
| 2026-04-12 03:28 | 18.51123 | -69.96018 | 2055 ft | 152 kts | 171° |
| 2026-04-12 03:28 | 18.50054 | -69.95881 | 2079 ft | 158 kts | 169° |
| 2026-04-12 03:29 | 18.48964 | -69.95710 | 2071 ft | 163 kts | 169° |
| 2026-04-12 03:29 | 18.47836 | -69.95509 | 2049 ft | 167 kts | 169° |
| 2026-04-12 03:29 | 18.46683 | -69.95305 | 2022 ft | 169 kts | 169° |
| 2026-04-12 03:29 | 18.45521 | -69.95101 | 1968 ft | 172 kts | 169° |
| 2026-04-12 03:30 | 18.44345 | -69.94879 | 1940 ft | 171 kts | 168° |
| 2026-04-12 03:30 | 18.43181 | -69.94815 | 2020 ft | 165 kts | 195° |
| 2026-04-12 03:30 | 18.42405 | -69.95622 | 2093 ft | 162 kts | 255° |
| 2026-04-12 03:30 | 18.42751 | -69.96647 | 2070 ft | 156 kts | 329° |
| 2026-04-12 03:31 | 18.43697 | -69.96507 | 2064 ft | 150 kts | 61° |
| 2026-04-12 03:31 | 18.43908 | -69.95404 | 1976 ft | 159 kts | 81° |
| 2026-04-12 03:31 | 18.43998 | -69.94260 | 2048 ft | 155 kts | 96° |
| 2026-04-12 03:31 | 18.43269 | -69.93502 | 2083 ft | 161 kts | 168° |
| 2026-04-12 03:32 | 18.42228 | -69.93885 | 2119 ft | 164 kts | 224° |
| 2026-04-12 03:32 | 18.42190 | -69.94925 | 2128 ft | 155 kts | 316° |
| 2026-04-12 03:32 | 18.43175 | -69.95222 | 2192 ft | 149 kts | 8° |
| 2026-04-12 03:32 | 18.44182 | -69.95400 | 2142 ft | 158 kts | 317° |
| 2026-04-12 03:33 | 18.44114 | -69.96468 | 2137 ft | 164 kts | 225° |
| 2026-04-12 03:33 | 18.43074 | -69.96640 | 2138 ft | 160 kts | 153° |
| 2026-04-12 03:33 | 18.42481 | -69.95719 | 2092 ft | 157 kts | 95° |
| 2026-04-12 03:33 | 18.42521 | -69.94558 | 2058 ft | 158 kts | 84° |
| 2026-04-12 03:34 | 18.42660 | -69.93397 | 2021 ft | 159 kts | 84° |
| 2026-04-12 03:34 | 18.42711 | -69.92228 | 2023 ft | 159 kts | 86° |
| 2026-04-12 03:34 | 18.42736 | -69.91085 | 2022 ft | 159 kts | 87° |
| 2026-04-12 03:34 | 18.42760 | -69.89926 | 2022 ft | 158 kts | 87° |
| 2026-04-12 03:35 | 18.42787 | -69.88762 | 2022 ft | 158 kts | 87° |
| 2026-04-12 03:35 | 18.42816 | -69.87601 | 2022 ft | 158 kts | 87° |
| 2026-04-12 03:35 | 18.42847 | -69.86442 | 2022 ft | 158 kts | 87° |
| 2026-04-12 03:35 | 18.42878 | -69.85285 | 2022 ft | 158 kts | 87° |
| 2026-04-12 03:36 | 18.42910 | -69.84125 | 2022 ft | 158 kts | 87° |
| 2026-04-12 03:36 | 18.42943 | -69.82966 | 2022 ft | 159 kts | 88° |
| 2026-04-12 03:36 | 18.42975 | -69.81804 | 2022 ft | 159 kts | 88° |
| 2026-04-12 03:36 | 18.43007 | -69.80637 | 2022 ft | 159 kts | 88° |
| 2026-04-12 03:37 | 18.43040 | -69.79477 | 2022 ft | 159 kts | 88° |
| 2026-04-12 03:37 | 18.43072 | -69.78308 | 2022 ft | 159 kts | 88° |
| 2026-04-12 03:37 | 18.43104 | -69.77150 | 2022 ft | 159 kts | 88° |
| 2026-04-12 03:37 | 18.43136 | -69.75997 | 2023 ft | 159 kts | 88° |
| 2026-04-12 03:38 | 18.43169 | -69.74817 | 2023 ft | 159 kts | 88° |
| 2026-04-12 03:38 | 18.43200 | -69.73669 | 2023 ft | 159 kts | 88° |
| 2026-04-12 03:38 | 18.43233 | -69.72502 | 2023 ft | 159 kts | 87° |
| 2026-04-12 03:38 | 18.43264 | -69.71341 | 2022 ft | 159 kts | 87° |
| 2026-04-12 03:39 | 18.43297 | -69.70177 | 2033 ft | 158 kts | 87° |
| 2026-04-12 03:39 | 18.43329 | -69.69020 | 2038 ft | 158 kts | 87° |
| 2026-04-12 03:39 | 18.43360 | -69.67857 | 2037 ft | 159 kts | 88° |
| 2026-04-12 03:39 | 18.43392 | -69.66690 | 2038 ft | 159 kts | 88° |
| 2026-04-12 03:40 | 18.43424 | -69.65521 | 2038 ft | 160 kts | 88° |
| 2026-04-12 03:40 | 18.43455 | -69.64351 | 2039 ft | 159 kts | 87° |
| 2026-04-12 03:40 | 18.43486 | -69.63184 | 2039 ft | 159 kts | 87° |
| 2026-04-12 03:40 | 18.43517 | -69.62033 | 2039 ft | 159 kts | 87° |
| 2026-04-12 03:41 | 18.43548 | -69.60876 | 2039 ft | 159 kts | 88° |
| 2026-04-12 03:41 | 18.43580 | -69.59702 | 2039 ft | 159 kts | 88° |
| 2026-04-12 03:41 | 18.43611 | -69.58536 | 2039 ft | 159 kts | 88° |
| 2026-04-12 03:41 | 18.43642 | -69.57370 | 2039 ft | 159 kts | 88° |
| 2026-04-12 03:42 | 18.43673 | -69.56207 | 2039 ft | 159 kts | 88° |
| 2026-04-12 03:42 | 18.43703 | -69.55055 | 2039 ft | 159 kts | 88° |
| 2026-04-12 03:42 | 18.43734 | -69.53892 | 2039 ft | 159 kts | 88° |
| 2026-04-12 03:42 | 18.43765 | -69.52735 | 2039 ft | 159 kts | 88° |
| 2026-04-12 03:43 | 18.43796 | -69.51566 | 2039 ft | 159 kts | 88° |
| 2026-04-12 03:43 | 18.43826 | -69.50393 | 2039 ft | 159 kts | 88° |
| 2026-04-12 03:43 | 18.43857 | -69.49223 | 2039 ft | 159 kts | 88° |
| 2026-04-12 03:43 | 18.43887 | -69.48071 | 2039 ft | 159 kts | 88° |
| 2026-04-12 03:44 | 18.43918 | -69.46892 | 2039 ft | 159 kts | 88° |
| 2026-04-12 03:44 | 18.43948 | -69.45747 | 2039 ft | 159 kts | 88° |
| 2026-04-12 03:44 | 18.43978 | -69.44582 | 2039 ft | 159 kts | 88° |
| 2026-04-12 03:44 | 18.44008 | -69.43415 | 2039 ft | 159 kts | 88° |
| 2026-04-12 03:45 | 18.44038 | -69.42249 | 2039 ft | 159 kts | 88° |
| 2026-04-12 03:45 | 18.44068 | -69.41087 | 2039 ft | 159 kts | 88° |
| 2026-04-12 03:45 | 18.44098 | -69.39919 | 2039 ft | 159 kts | 88° |
| 2026-04-12 03:45 | 18.44125 | -69.38872 | 2039 ft | 159 kts | 88° |
| 2026-04-12 03:46 | 18.44154 | -69.37705 | 2039 ft | 159 kts | 88° |
| 2026-04-12 03:46 | 18.44184 | -69.36557 | 2039 ft | 159 kts | 88° |
| 2026-04-12 03:46 | 18.44213 | -69.35380 | 2039 ft | 159 kts | 88° |
| 2026-04-12 03:46 | 18.44243 | -69.34216 | 2039 ft | 159 kts | 88° |
| 2026-04-12 03:47 | 18.44272 | -69.33053 | 2039 ft | 159 kts | 88° |
| 2026-04-12 03:47 | 18.44301 | -69.31905 | 2039 ft | 159 kts | 88° |
| 2026-04-12 03:47 | 18.44330 | -69.30726 | 2039 ft | 159 kts | 88° |
| 2026-04-12 03:47 | 18.44359 | -69.29580 | 2039 ft | 159 kts | 88° |
| 2026-04-12 03:48 | 18.44388 | -69.28424 | 2039 ft | 159 kts | 88° |
| 2026-04-12 03:48 | 18.44417 | -69.27254 | 2039 ft | 159 kts | 88° |
| 2026-04-12 03:48 | 18.44446 | -69.26092 | 2039 ft | 159 kts | 88° |
| 2026-04-12 03:48 | 18.44475 | -69.24916 | 2039 ft | 159 kts | 88° |
| 2026-04-12 03:49 | 18.44503 | -69.23767 | 2039 ft | 159 kts | 88° |
| 2026-04-12 03:49 | 18.44531 | -69.22605 | 2039 ft | 159 kts | 88° |
| 2026-04-12 03:49 | 18.44560 | -69.21440 | 2039 ft | 159 kts | 88° |
| 2026-04-12 03:49 | 18.44588 | -69.20288 | 2039 ft | 159 kts | 88° |
| 2026-04-12 03:50 | 18.44616 | -69.19114 | 2039 ft | 159 kts | 88° |
| 2026-04-12 03:50 | 18.44644 | -69.17954 | 2039 ft | 159 kts | 88° |
| 2026-04-12 03:50 | 18.44672 | -69.16789 | 2039 ft | 159 kts | 88° |
| 2026-04-12 03:50 | 18.44700 | -69.15627 | 2039 ft | 159 kts | 88° |
| 2026-04-12 03:51 | 18.44727 | -69.14462 | 2039 ft | 159 kts | 88° |
| 2026-04-12 03:51 | 18.44755 | -69.13300 | 2039 ft | 159 kts | 88° |
| 2026-04-12 03:51 | 18.44782 | -69.12132 | 2039 ft | 159 kts | 88° |
| 2026-04-12 03:51 | 18.44809 | -69.10968 | 2039 ft | 159 kts | 88° |
| 2026-04-12 03:52 | 18.44836 | -69.09812 | 2039 ft | 159 kts | 88° |
| 2026-04-12 03:52 | 18.44862 | -69.08662 | 2039 ft | 159 kts | 88° |
| 2026-04-12 03:52 | 18.44888 | -69.07498 | 2039 ft | 159 kts | 88° |
| 2026-04-12 03:52 | 18.44914 | -69.06337 | 2039 ft | 159 kts | 88° |
| 2026-04-12 03:53 | 18.44940 | -69.05173 | 2039 ft | 159 kts | 88° |
| 2026-04-12 03:53 | 18.44966 | -69.04009 | 2039 ft | 159 kts | 88° |
| 2026-04-12 03:53 | 18.44991 | -69.02850 | 2039 ft | 159 kts | 88° |
| 2026-04-12 03:53 | 18.45016 | -69.01690 | 2039 ft | 159 kts | 88° |
| 2026-04-12 03:54 | 18.45040 | -69.00527 | 2039 ft | 159 kts | 88° |
| 2026-04-12 03:54 | 18.45063 | -68.99362 | 2039 ft | 159 kts | 88° |
| 2026-04-12 03:54 | 18.45076 | -68.98708 | 2039 ft | 159 kts | 88° |
| 2026-04-12 03:54 | 18.45180 | -68.97643 | 1771 ft | 158 kts | 77° |
| 2026-04-12 03:55 | 18.45404 | -68.96678 | 1551 ft | 120 kts | 73° |
| 2026-04-12 03:55 | 18.45580 | -68.95873 | 1199 ft | 109 kts | 78° |
| 2026-04-12 03:55 | 18.45683 | -68.95098 | 862 ft | 102 kts | 87° |
| 2026-04-12 03:55 | 18.45635 | -68.94360 | 661 ft | 109 kts | 96° |
| 2026-04-12 03:56 | 18.45530 | -68.93505 | 497 ft | 123 kts | 96° |
| 2026-04-12 03:56 | 18.45432 | -68.92640 | 314 ft | 108 kts | 97° |
| 2026-04-12 03:56 | 18.45352 | -68.91955 | 246 ft | 78 kts | 96° |
| 2026-04-12 03:56 | 18.45295 | -68.91488 | 244 ft | 53 kts | 97° |
| 2026-04-12 03:57 | 18.45259 | -68.91186 | 244 ft | 30 kts | 99° |
| 2026-04-12 03:57 | 18.45211 | -68.91133 | 244 ft | 1 kts | 183° |
| 2026-04-12 03:57 | 18.45151 | -68.91142 | 244 ft | 15 kts | 187° |
| 2026-04-12 03:57 | 18.45038 | -68.91158 | 244 ft | 13 kts | 194° |
| 2026-04-12 03:58 | 18.45023 | -68.91225 | 244 ft | 12 kts | 277° |
| 2026-04-12 03:58 | 18.45035 | -68.91324 | 244 ft | 15 kts | 278° |
| 2026-04-12 03:58 | 18.45049 | -68.91443 | 244 ft | 17 kts | 277° |
| 2026-04-12 03:58 | 18.45066 | -68.91574 | 244 ft | 17 kts | 276° |
| 2026-04-12 03:59 | 18.45042 | -68.91616 | 244 ft | 2 kts | 174° |
| 2026-04-12 03:59 | 18.45002 | -68.91561 | 244 ft | 15 kts | 142° |
| 2026-04-12 03:59 | 18.44969 | -68.91513 | 244 ft | 2 kts | 130° |
| 2026-04-12 03:59 | 18.44952 | -68.91496 | 244 ft | 0 kts | 187° |
| 2026-04-12 04:04 | 18.44939 | -68.91527 | 244 ft | 17 kts | 278° |
| 2026-04-12 04:05 | 18.45036 | -68.91596 | 244 ft | 12 kts | 338° |
| 2026-04-12 04:05 | 18.45106 | -68.91610 | 244 ft | 12 kts | 4° |
| 2026-04-12 04:05 | 18.45195 | -68.91599 | 244 ft | 7 kts | 13° |
| 2026-04-12 04:05 | 18.45201 | -68.91594 | 244 ft | 0 kts | 65° |
| 2026-04-12 04:06 | 18.45202 | -68.91593 | 244 ft | 0 kts | 65° |
| 2026-04-12 04:06 | 18.45222 | -68.91590 | 244 ft | 8 kts | 339° |
| 2026-04-12 04:07 | 18.45227 | -68.91592 | 244 ft | 0 kts | 344° |
| 2026-04-12 04:09 | 18.45253 | -68.91590 | 244 ft | 12 kts | 7° |
| 2026-04-12 04:09 | 18.45317 | -68.91647 | 244 ft | 20 kts | 275° |
| 2026-04-12 04:09 | 18.45337 | -68.91859 | 244 ft | 38 kts | 279° |
| 2026-04-12 04:09 | 18.45374 | -68.92172 | 244 ft | 44 kts | 278° |
| 2026-04-12 04:10 | 18.45393 | -68.92397 | 244 ft | 22 kts | 251° |
| 2026-04-12 04:10 | 18.45383 | -68.92481 | 244 ft | 5 kts | 349° |
| 2026-04-12 04:10 | 18.45408 | -68.92458 | 244 ft | 9 kts | 80° |
| 2026-04-12 04:10 | 18.45394 | -68.92322 | 244 ft | 39 kts | 97° |
| 2026-04-12 04:11 | 18.45337 | -68.91855 | 244 ft | 88 kts | 98° |
| 2026-04-12 04:11 | 18.45248 | -68.91104 | 266 ft | 116 kts | 97° |
| 2026-04-12 04:11 | 18.45145 | -68.90200 | 295 ft | 129 kts | 97° |
| 2026-04-12 04:11 | 18.44655 | -68.89703 | 761 ft | 110 kts | 174° |
| 2026-04-12 04:12 | 18.44109 | -68.89735 | 807 ft | 119 kts | 185° |
| 2026-04-12 04:12 | 18.43368 | -68.90006 | 1076 ft | 117 kts | 221° |
| 2026-04-12 04:12 | 18.42976 | -68.90772 | 1216 ft | 126 kts | 259° |
| 2026-04-12 04:12 | 18.42847 | -68.91709 | 1374 ft | 131 kts | 268° |
| 2026-04-12 04:13 | 18.42923 | -68.92665 | 1562 ft | 134 kts | 280° |
| 2026-04-12 04:13 | 18.43072 | -68.93651 | 1698 ft | 139 kts | 280° |
| 2026-04-12 04:13 | 18.43220 | -68.94672 | 1829 ft | 143 kts | 279° |
| 2026-04-12 04:13 | 18.43364 | -68.95720 | 1958 ft | 145 kts | 279° |
| 2026-04-12 04:14 | 18.43507 | -68.96786 | 2034 ft | 151 kts | 279° |
| 2026-04-12 04:14 | 18.43653 | -68.97911 | 2043 ft | 158 kts | 278° |
| 2026-04-12 04:14 | 18.43799 | -68.99074 | 2048 ft | 162 kts | 278° |
| 2026-04-12 04:14 | 18.43948 | -69.00254 | 2051 ft | 164 kts | 278° |
| 2026-04-12 04:15 | 18.44100 | -69.01452 | 2053 ft | 165 kts | 278° |
| 2026-04-12 04:15 | 18.44257 | -69.02655 | 2053 ft | 166 kts | 278° |
| 2026-04-12 04:15 | 18.44414 | -69.03848 | 2054 ft | 167 kts | 279° |
| 2026-04-12 04:15 | 18.44578 | -69.05074 | 2054 ft | 167 kts | 279° |
| 2026-04-12 04:16 | 18.44739 | -69.06269 | 2055 ft | 167 kts | 279° |
| 2026-04-12 04:16 | 18.44904 | -69.07485 | 2055 ft | 167 kts | 279° |
| 2026-04-12 04:16 | 18.45069 | -69.08692 | 2055 ft | 167 kts | 279° |
| 2026-04-12 04:16 | 18.45236 | -69.09910 | 2055 ft | 167 kts | 279° |
| 2026-04-12 04:17 | 18.45403 | -69.11123 | 2055 ft | 167 kts | 279° |
| 2026-04-12 04:17 | 18.45570 | -69.12335 | 2055 ft | 167 kts | 279° |
| 2026-04-12 04:17 | 18.45735 | -69.13534 | 2055 ft | 167 kts | 279° |
| 2026-04-12 04:17 | 18.45903 | -69.14760 | 2055 ft | 167 kts | 279° |
| 2026-04-12 04:18 | 18.46068 | -69.15958 | 2052 ft | 167 kts | 279° |
| 2026-04-12 04:18 | 18.46235 | -69.17170 | 2051 ft | 167 kts | 279° |
| 2026-04-12 04:18 | 18.46402 | -69.18382 | 2051 ft | 167 kts | 279° |
| 2026-04-12 04:18 | 18.46572 | -69.19610 | 2051 ft | 167 kts | 279° |
| 2026-04-12 04:19 | 18.46735 | -69.20801 | 2051 ft | 167 kts | 279° |
| 2026-04-12 04:19 | 18.46902 | -69.22011 | 2051 ft | 167 kts | 279° |
| 2026-04-12 04:19 | 18.47068 | -69.23220 | 2051 ft | 167 kts | 279° |
| 2026-04-12 04:19 | 18.47235 | -69.24435 | 2051 ft | 167 kts | 279° |
| 2026-04-12 04:20 | 18.47402 | -69.25648 | 2051 ft | 167 kts | 279° |
| 2026-04-12 04:20 | 18.47568 | -69.26861 | 2051 ft | 167 kts | 279° |
| 2026-04-12 04:20 | 18.47734 | -69.28068 | 2051 ft | 167 kts | 279° |
| 2026-04-12 04:20 | 18.47900 | -69.29280 | 2051 ft | 167 kts | 279° |
| 2026-04-12 04:21 | 18.48066 | -69.30492 | 2051 ft | 167 kts | 279° |
| 2026-04-12 04:21 | 18.48231 | -69.31693 | 2051 ft | 167 kts | 279° |
| 2026-04-12 04:21 | 18.48397 | -69.32905 | 2051 ft | 167 kts | 279° |
| 2026-04-12 04:21 | 18.48562 | -69.34115 | 2051 ft | 167 kts | 279° |
| 2026-04-12 04:22 | 18.48728 | -69.35323 | 2051 ft | 167 kts | 279° |
| 2026-04-12 04:22 | 18.48894 | -69.36535 | 2051 ft | 167 kts | 279° |
| 2026-04-12 04:22 | 18.49059 | -69.37746 | 2051 ft | 167 kts | 279° |
| 2026-04-12 04:22 | 18.49225 | -69.38959 | 2051 ft | 167 kts | 279° |
| 2026-04-12 04:23 | 18.49388 | -69.40155 | 2051 ft | 167 kts | 279° |
| 2026-04-12 04:23 | 18.49554 | -69.41364 | 2051 ft | 167 kts | 279° |
| 2026-04-12 04:23 | 18.49719 | -69.42574 | 2054 ft | 167 kts | 279° |
| 2026-04-12 04:23 | 18.49884 | -69.43781 | 2054 ft | 167 kts | 279° |
| 2026-04-12 04:24 | 18.50050 | -69.44994 | 2053 ft | 167 kts | 279° |
| 2026-04-12 04:24 | 18.50215 | -69.46200 | 2053 ft | 167 kts | 279° |
| 2026-04-12 04:24 | 18.50380 | -69.47414 | 2053 ft | 167 kts | 279° |
| 2026-04-12 04:24 | 18.50545 | -69.48620 | 2053 ft | 167 kts | 279° |
| 2026-04-12 04:25 | 18.50710 | -69.49837 | 2053 ft | 167 kts | 279° |
| 2026-04-12 04:25 | 18.50874 | -69.51040 | 2053 ft | 167 kts | 279° |
| 2026-04-12 04:25 | 18.51037 | -69.52231 | 2053 ft | 167 kts | 279° |
| 2026-04-12 04:25 | 18.51204 | -69.53462 | 2053 ft | 167 kts | 279° |
| 2026-04-12 04:26 | 18.51367 | -69.54658 | 2053 ft | 167 kts | 279° |
| 2026-04-12 04:26 | 18.51533 | -69.55880 | 2053 ft | 167 kts | 279° |
| 2026-04-12 04:26 | 18.51696 | -69.57078 | 2053 ft | 167 kts | 279° |
| 2026-04-12 04:26 | 18.51861 | -69.58292 | 2053 ft | 167 kts | 279° |
| 2026-04-12 04:27 | 18.52026 | -69.59500 | 2053 ft | 167 kts | 279° |
| 2026-04-12 04:27 | 18.52193 | -69.60730 | 2053 ft | 167 kts | 279° |
| 2026-04-12 04:27 | 18.52354 | -69.61921 | 2053 ft | 167 kts | 280° |
| 2026-04-12 04:27 | 18.52518 | -69.63129 | 2053 ft | 167 kts | 280° |
| 2026-04-12 04:28 | 18.52684 | -69.64343 | 2053 ft | 167 kts | 280° |
| 2026-04-12 04:28 | 18.52848 | -69.65549 | 2053 ft | 167 kts | 280° |
| 2026-04-12 04:28 | 18.53013 | -69.66764 | 2053 ft | 167 kts | 280° |
| 2026-04-12 04:28 | 18.53178 | -69.67974 | 2053 ft | 167 kts | 280° |
| 2026-04-12 04:29 | 18.53343 | -69.69191 | 2053 ft | 167 kts | 280° |
| 2026-04-12 04:29 | 18.53507 | -69.70397 | 2053 ft | 167 kts | 280° |
| 2026-04-12 04:29 | 18.53673 | -69.71613 | 2053 ft | 167 kts | 280° |
| 2026-04-12 04:29 | 18.53838 | -69.72825 | 2053 ft | 167 kts | 280° |
| 2026-04-12 04:30 | 18.54001 | -69.74022 | 2053 ft | 167 kts | 280° |
| 2026-04-12 04:30 | 18.54167 | -69.75238 | 2053 ft | 167 kts | 280° |
| 2026-04-12 04:30 | 18.54332 | -69.76449 | 2053 ft | 167 kts | 280° |
| 2026-04-12 04:30 | 18.54497 | -69.77658 | 2053 ft | 167 kts | 280° |
| 2026-04-12 04:31 | 18.54663 | -69.78870 | 2053 ft | 167 kts | 280° |
| 2026-04-12 04:31 | 18.54830 | -69.80089 | 2053 ft | 167 kts | 280° |
| 2026-04-12 04:31 | 18.54996 | -69.81299 | 2053 ft | 167 kts | 280° |
| 2026-04-12 04:31 | 18.55162 | -69.82505 | 2053 ft | 167 kts | 280° |
| 2026-04-12 04:32 | 18.55330 | -69.83720 | 2053 ft | 167 kts | 280° |
| 2026-04-12 04:32 | 18.55497 | -69.84931 | 2054 ft | 167 kts | 280° |
| 2026-04-12 04:32 | 18.55665 | -69.86139 | 2053 ft | 167 kts | 280° |
| 2026-04-12 04:32 | 18.55836 | -69.87359 | 2053 ft | 167 kts | 280° |
| 2026-04-12 04:33 | 18.56007 | -69.88575 | 1979 ft | 171 kts | 280° |
| 2026-04-12 04:33 | 18.56181 | -69.89827 | 1858 ft | 174 kts | 280° |
| 2026-04-12 04:33 | 18.56357 | -69.91099 | 1734 ft | 175 kts | 280° |
| 2026-04-12 04:33 | 18.56535 | -69.92357 | 1611 ft | 175 kts | 280° |
| 2026-04-12 04:34 | 18.56726 | -69.93642 | 1485 ft | 175 kts | 281° |
| 2026-04-12 04:34 | 18.56923 | -69.94890 | 1361 ft | 175 kts | 281° |
| 2026-04-12 04:34 | 18.57142 | -69.96165 | 1235 ft | 174 kts | 282° |
| 2026-04-12 04:34 | 18.57392 | -69.97403 | 1037 ft | 177 kts | 284° |
| 2026-04-12 04:35 | 18.57665 | -69.98659 | 905 ft | 165 kts | 268° |
| 2026-04-12 04:35 | 18.57226 | -69.99553 | 856 ft | 125 kts | 218° |
| 2026-04-12 04:35 | 18.56447 | -69.99542 | 537 ft | 113 kts | 142° |
| 2026-04-12 04:35 | 18.56290 | -69.98863 | 319 ft | 93 kts | 69° |
| 2026-04-12 04:36 | 18.56826 | -69.98611 | 92 ft | 78 kts | 5° |
| 2026-04-12 04:36 | 18.57259 | -69.98560 | 83 ft | 51 kts | 4° |
| 2026-04-12 04:36 | 18.57551 | -69.98525 | 83 ft | 34 kts | 7° |
| 2026-04-12 04:36 | 18.57737 | -69.98503 | 83 ft | 22 kts | 7° |
| 2026-04-12 04:37 | 18.57871 | -69.98488 | 83 ft | 19 kts | 4° |
| 2026-04-12 04:37 | 18.57955 | -69.98433 | 83 ft | 10 kts | 80° |
| 2026-04-12 04:37 | 18.57953 | -69.98387 | 83 ft | 5 kts | 95° |
| 2026-04-12 04:37 | 18.57952 | -69.98381 | 83 ft | 4 kts | 95° |
| 2026-04-12 04:38 | 18.57950 | -69.98353 | 83 ft | 7 kts | 96° |
| 2026-04-12 04:38 | 18.57942 | -69.98271 | 83 ft | 14 kts | 97° |
| 2026-04-12 04:38 | 18.57956 | -69.98219 | 83 ft | 3 kts | 33° |
| 2026-04-12 04:38 | 18.57992 | -69.98186 | 83 ft | 3 kts | 95° |
| 2026-04-12 04:39 | 18.57986 | -69.98137 | 83 ft | 6 kts | 98° |
| 2026-04-12 04:39 | 18.57979 | -69.98070 | 83 ft | 12 kts | 98° |
| 2026-04-12 04:39 | 18.57968 | -69.98006 | 83 ft | 10 kts | 108° |
| 2026-04-12 04:39 | 18.57945 | -69.97995 | 83 ft | 2 kts | 248° |
| 2026-04-12 04:40 | 18.57945 | -69.97997 | 83 ft | 0 kts | 263° |